Aérodrome :
LOGIN :

S'inscrire | Disclaimer

   EN    FR    IT 

 










Légende :    VFR   VFR Marginal   IFR   IFR Intensif   IFR Très Intensif
Visi : 
Plafond : 
>= 8 km
>= 3000ft
5 à 8 km
1000 à 3000 ft
1500m à 5 km
500 à 1000 ft
800 à 1500m
200 à 500 ft
< 800m
< 200 ft
Symboles :   Orages  Brouillard  Fortes neiges  Fortes précipitations  Vent > 20 kt
SIGMETs :   Divers  Orages  Givrage  Turbulence  Onde Orograph.  Cendres Volcan.







- Altitude de l'aérodrome : 6 ft
- Code IATA : PSA


LIRP - Galileo Galilei Pisa

DERNIER METAR :
  • 131815Z 25014KT 9999 SCT025 10/04 Q1017 NOSIG

METARs EXPIRÉS :
  • 131745Z 25015KT 9999 FEW030 SCT060 10/04 Q1017 NOSIG
  • 131715Z 24018KT 9999 FEW030 SCT060 10/04 Q1017 NOSIG
  • 131645Z 24018KT 9999 SCT030 BKN060 10/03 Q1016 NOSIG
  • 131615Z 25014KT 9999 SCT030 BKN060 10/03 Q1016 NOSIG
  • 131545Z 24012KT 9999 VCSH FEW025TCU SCT030 BKN060 10/04 Q1016 NOSIG

TAF TAF LIRP
Valide du 13 à 18h jusqu'au 14 à 18h UTC


131700Z 1318/1418 23012KT 9999 SCT030 BKN050
TEMPO 1318/1418 25018G30KT 5000 RA BR
PROB30
TEMPO 1406/1412 3000 SHRA FEW015CB BKN025
Pas de NOTAMs connus pour ce terrain.



MET'MAP, la Météo Aéronautique d'un coup d'oeil ! - Copyright ORBIFLY Décembre 2007 - Disclaimer

ORBIFLY MET'MAP TEAM :

Programmation & Développement : Alexandra Zaïnal
Conception & Développement : Baudouin d'Aumeries
Co-Programmation & Développement : Marc-Olivier Méhu
Soutien technique & logistique : Manuel Goepfert

Contact : metmap@orbifly.com




SOURCES & CREDITS :

   NOAA